x

9441102 - Westport, Wa (wptw1) Weather Station

12:36 - Fri 9th Dec 2016 All times are PST. -8 hours from GMT.

  • Wind
    20mph, 23mph gusts
  • Sea Temp 44°f
  • Air Temp 34°f
  • Sea Pressure 1011.7mb
  • 9441102 - Westport, Wa
  • 9441102 - Westport, Wa

More Historic Weather Station data

Upgrade to MSW Pro to gain access to the past 30 days of data for over 8000 Wavebouys and Weather Stations around the globe.

Join Pro

Comparision Forecast

View Surf forecast
   
ven. 12/09 12:36 20 23 mph 1011.7mb 44f 34f
12:30 16 22 mph 1011.7mb 44f 34f
12:24 14 21 mph 1011.7mb 44f 34f
12:18 18 24 mph 1011.4mb 44f 34f
12:12 17 26 mph 1011.5mb 44f 34f
12:06 24 29 mph 1011.4mb 44f 33f
12:00 20 28 mph 1011.2mb 44f 34f
jeu. 12/08 11:36 21 28 mph 1011.3mb 44f 33f
11:30 18 28 mph 1011.2mb 45f 33f
11:24 18 25 mph 1011.2mb 45f 33f
11:18 20 28 mph 1011.1mb 45f 33f
11:12 22 29 mph 1011.1mb 45f 33f
11:06 24 33 mph 1011mb 45f 33f
11:00 24 33 mph 1010.9mb 45f 33f
10:36 24 32 mph 1010.7mb 45f 33f
10:30 20 26 mph 1010.6mb 45f 33f
10:24 21 32 mph 1010.3mb 45f 33f
10:18 24 32 mph 1010.5mb 45f 33f
10:12 23 31 mph 1010.4mb 45f 33f
10:06 24 29 mph 1010.2mb 45f 32f
10:00 26 32 mph 1010.1mb 45f 32f
9:36 24 32 mph 1009.9mb 47f 32f
9:30 24 30 mph 1009.8mb 47f 32f
9:24 21 29 mph 1009.8mb 47f 32f
9:18 22 26 mph 1009.8mb 48f 32f
9:12 22 30 mph 1009.7mb 48f 32f
9:06 25 36 mph 1009.9mb 47f 31f
9:00 28 38 mph 1009.8mb 47f 31f
8:36 21 26 mph 1009.5mb 48f 31f
8:30 22 32 mph 1009.3mb 48f 31f
8:24 24 31 mph 1009.4mb 48f 31f
8:18 29 34 mph 1009.3mb 48f 31f
8:12 24 34 mph 1009.3mb 48f 31f
8:06 29 38 mph 1009.3mb 48f 31f
8:00 30 38 mph 1009.2mb 48f 31f
7:36 29 37 mph 1009.3mb 47f 31f
7:30 33 43 mph 1009.3mb 46f 31f
7:24 33 40 mph 1009.2mb 46f 32f
7:18 32 40 mph 1009.4mb 46f 32f
7:12 32 41 mph 1009.5mb 46f 31f
7:06 30 44 mph 1009.4mb 47f 32f
7:00 31 44 mph 1009.4mb 46f 31f
6:36 30 45 mph 1009.3mb 45f 32f
6:30 33 41 mph 1009.3mb 45f 32f
6:24 34 43 mph 1009.2mb 45f 32f
6:18 31 41 mph 1009.1mb 45f 32f
6:12 31 38 mph 1009.3mb 45f 32f
6:06 34 41 mph 1009.2mb 45f 32f
6:00 32 43 mph 1009.2mb 44f 32f
5:36 30 41 mph 1009.5mb 44f 32f
5:30 32 40 mph 1009.4mb 44f 32f
5:24 30 40 mph 1009.4mb 44f 32f
5:18 31 45 mph 1009.5mb 44f 32f
5:12 33 44 mph 1009.4mb 44f 32f
5:06 33 43 mph 1009.5mb 44f 32f
5:00 32 41 mph 1009.6mb 44f 32f
4:36 33 40 mph 1010mb 44f 31f
4:30 32 40 mph 1010.1mb 44f 32f
4:24 29 36 mph 1010.2mb 45f 32f
4:18 25 38 mph 1010.1mb 45f 31f
4:12 28 38 mph 1010.1mb 44f 31f
4:06 31 38 mph 1010mb 44f 31f
4:00 31 39 mph 1009.9mb 45f 31f
3:36 30 38 mph 1010.3mb 45f 31f
3:30 31 41 mph 1010.4mb 45f 31f
3:24 33 40 mph 1010.4mb 45f 31f
3:18 34 43 mph 1010.6mb 45f 31f
3:12 25 36 mph 1010.5mb 45f 31f
3:06 25 36 mph 1010.5mb 45f 31f
3:00 30 37 mph 1010.6mb 45f 31f
2:36 25 34 mph 1010.7mb 45f 33f
2:30 29 39 mph 1010.8mb 45f 33f
2:24 22 30 mph 1010.7mb 45f 34f
2:18 26 40 mph 1010.8mb 45f 35f
2:12 22 33 mph 1010.8mb 45f 36f
2:06 23 36 mph 1010.7mb 45f 36f
2:00 24 33 mph 1010.7mb 45f 36f
1:36 30 38 mph 1010.4mb 44f 37f
1:30 26 37 mph 1010.6mb 44f 36f
1:24 28 33 mph 1010.7mb 44f 36f
1:18 26 36 mph 1010.8mb 44f 36f
1:12 29 40 mph 1010.9mb 44f 37f
1:06 34 40 mph 1011mb 44f 36f
1:00 36 43 mph 1011.2mb 44f 36f
12:36 33 43 mph 1011.2mb 44f 37f
12:30 28 43 mph 1011mb 44f 37f
12:24 32 43 mph 1011mb 44f 37f
12:18 34 46 mph 1011.2mb 44f 36f
12:12 36 46 mph 1011.3mb 44f 36f
12:06 30 41 mph 1011.4mb 44f 36f
12:00 28 38 mph 1011.5mb 45f 36f
11:36 30 41 mph 1012.2mb 45f 35f
11:30 34 41 mph 1012.4mb 45f 35f
11:24 30 40 mph 1012.5mb 45f 35f
11:18 31 37 mph 1012.6mb 45f 35f
11:12 30 40 mph 1012.5mb 45f 35f
11:06 29 44 mph 1012.6mb 45f 35f
11:00 31 44 mph 1012.7mb 45f 35f
10:36 34 43 mph 1013.2mb 45f 35f
10:30 33 40 mph 1013.5mb 46f 35f
10:24 31 39 mph 1013.6mb 46f 35f
10:18 34 43 mph 1013.7mb 46f 35f
10:12 31 39 mph 1013.9mb 46f 35f
10:06 30 40 mph 1013.8mb 46f 35f
10:00 30 37 mph 1014.1mb 46f 35f
9:36 34 48 mph 1013.5mb 47f 34f
9:30 32 44 mph 1013.4mb 47f 34f
9:24 34 46 mph 1013.5mb 47f 34f
9:18 34 46 mph 1013.6mb 47f 34f
9:12 33 46 mph 1013.8mb 48f 34f
9:06 34 44 mph 1013.9mb 48f 34f
9:00 31 41 mph 1013.9mb 48f 35f
8:36 34 45 mph 1014.6mb 51f 34f
8:30 37 45 mph 1014.6mb 51f 33f
8:24 31 43 mph 1014.8mb 51f 33f
8:18 33 43 mph 1014.8mb 52f 33f
8:12 32 45 mph 1014.9mb 52f 33f
8:06 29 39 mph 1014.9mb 52f 34f
8:00 31 41 mph 1015.1mb 51f 33f
7:36 33 43 mph 1015.1mb 51f 33f
7:30 33 46 mph 1015.1mb 51f 33f
7:24 32 40 mph 1015.1mb 51f 33f
7:18 34 45 mph 1015.2mb 51f 33f
7:12 34 43 mph 1015.3mb 51f 33f
7:06 30 44 mph 1015.4mb 50f 33f
7:00 32 45 mph 1015.4mb 50f 33f
6:36 32 43 mph 1015.9mb 51f 33f
6:30 36 44 mph 1016.1mb 50f 33f
6:24 34 43 mph 1016.1mb 50f 33f
6:18 29 39 mph 1016.3mb 51f 33f
6:12 34 40 mph 1016.4mb 49f 33f
6:06 26 37 mph 1016.3mb 48f 33f
6:00 33 43 mph 1016.2mb 48f 33f
5:36 31 40 mph 1016mb 47f 33f
5:30 32 40 mph 1016mb 46f 33f
5:24 34 45 mph 1016.2mb 45f 33f
5:18 33 44 mph 1016.2mb 45f 33f
5:12 34 44 mph 1016.3mb 45f 33f
5:06 30 41 mph 1016.3mb 45f 33f
5:00 29 44 mph 1016.3mb 45f 33f
4:36 31 43 mph 1016.8mb 45f 33f
4:30 30 40 mph 1016.9mb 45f 33f
4:24 26 40 mph 1017mb 44f 33f
4:18 30 38 mph 1017.2mb 44f 33f
4:12 31 39 mph 1017.4mb 45f 33f
4:06 28 33 mph 1017.5mb 45f 33f
4:00 29 38 mph 1017.6mb 45f 33f
3:36 31 40 mph 1018.3mb 45f 33f
3:30 30 37 mph 1018.4mb 45f 33f
3:24 23 37 mph 1018.5mb 45f 33f
3:18 30 39 mph 1018.6mb 45f 33f
3:12 29 39 mph 1018.7mb 45f 33f
3:06 30 38 mph 1018.9mb 45f 33f
3:00 28 38 mph 1018.9mb 45f 33f
2:36 31 39 mph 1019.3mb 45f 33f
2:30 28 36 mph 1019.4mb 45f 33f
2:24 29 34 mph 1019.6mb 44f 33f
2:18 29 37 mph 1019.7mb 45f 33f
2:12 25 36 mph 1019.8mb 44f 33f
2:06 28 36 mph 1019.9mb 44f 33f
2:00 28 37 mph 1020mb 44f 33f
1:54 31 37 mph 1020.1mb 44f 33f
1:48 32 38 mph 1020.2mb 44f 33f
1:36 26 38 mph 1020.4mb 44f 33f
1:30 26 37 mph 1020.4mb 44f 33f
1:24 29 38 mph 1020.5mb 44f 33f
1:18 28 37 mph 1020.4mb 44f 33f
1:12 24 37 mph 1020.4mb 44f 33f
1:06 28 36 mph 1020.4mb 44f 33f
1:00 29 36 mph 1020.5mb 44f 33f
12:54 33 40 mph 1020.6mb 44f 33f
12:48 30 39 mph 1020.6mb 44f 33f
12:36 33 43 mph 1020.7mb 44f 33f
12:30 30 40 mph 1020.7mb 44f 33f
12:24 31 39 mph 1020.9mb 44f 33f
12:18 30 40 mph 1021mb 44f 33f
12:12 29 37 mph 1021.1mb 44f 33f
12:06 29 39 mph 1021.2mb 44f 33f
12:00 31 40 mph 1021.3mb 44f 33f
mer. 12/07 11:54 34 40 mph 1021.4mb 44f 33f
11:48 31 41 mph 1021.5mb 44f 33f
11:36 31 40 mph 1021.5mb 44f 33f
11:30 28 38 mph 1021.5mb 45f 33f
11:24 29 37 mph 1021.8mb 45f 33f
11:18 31 40 mph 1021.7mb 45f 33f
11:12 26 40 mph 1021.8mb 45f 33f
11:06 32 41 mph 1021.8mb 45f 33f
11:00 31 38 mph 1021.8mb 45f 33f
10:54 30 39 mph 1021.8mb 45f 33f
10:48 28 38 mph 1021.8mb 45f 33f
10:36 26 39 mph 1021.9mb 45f 33f
10:30 32 43 mph 1021.9mb 45f 33f
10:24 31 38 mph 1022.1mb 45f 33f
10:18 25 39 mph 1022.1mb 45f 33f
10:12 30 39 mph 1022.1mb 45f 33f
10:06 31 37 mph 1022.3mb 45f 33f
10:00 26 40 mph 1022.3mb 45f 33f
9:54 32 39 mph 1022.4mb 45f 34f
9:48 32 41 mph 1022.6mb 45f 34f
9:36 29 40 mph 1022.6mb 45f 34f
9:30 31 40 mph 1022.8mb 45f 34f
9:24 29 36 mph 1022.8mb 46f 34f
9:18 31 38 mph 1022.9mb 46f 34f
9:12 30 38 mph 1023mb 46f 34f
9:06 28 37 mph 1023mb 46f 34f
9:00 32 37 mph 1023mb 46f 34f
8:54 29 36 mph 1022.9mb 46f 34f
8:48 26 36 mph 1023mb 46f 34f
8:36 29 38 mph 1023mb 47f 34f
8:30 29 38 mph 1023.2mb 46f 34f
8:24 30 38 mph 1023.3mb 46f 34f
8:18 25 33 mph 1023.4mb 46f 34f
8:12 28 36 mph 1023.3mb 46f 34f
8:06 29 37 mph 1023.3mb 46f 34f
8:00 28 38 mph 1023.3mb 46f 34f
7:54 28 37 mph 1023.5mb 46f 34f
7:48 25 36 mph 1023.6mb 46f 34f
7:36 26 39 mph 1023.7mb 46f 34f
7:30 31 40 mph 1023.7mb 47f 34f
7:24 29 40 mph 1023.7mb 47f 34f
7:18 26 38 mph 1023.7mb 48f 34f
7:12 30 41 mph 1023.7mb 48f 34f
7:06 24 38 mph 1023.7mb 48f 34f
7:00 30 37 mph 1023.7mb 48f 34f
6:54 29 36 mph 1023.8mb 47f 34f
6:48 25 34 mph 1024mb 47f 34f
6:36 30 34 mph 1024.2mb 47f 34f
6:30 29 36 mph 1024.2mb 47f 34f
6:24 26 34 mph 1024.3mb 47f 35f
6:18 32 38 mph 1024.3mb 47f 34f
6:12 28 37 mph 1024.3mb 47f 35f
6:06 29 37 mph 1024.4mb 47f 35f
6:00 30 37 mph 1024.5mb 47f 35f
5:54 28 36 mph 1024.6mb 47f 35f
5:48 24 33 mph 1024.6mb 47f 35f
5:36 29 37 mph 1024.7mb 47f 35f
5:30 28 38 mph 1024.8mb 47f 35f
5:24 25 33 mph 1024.9mb 47f 35f
5:18 23 33 mph 1025mb 47f 35f
5:12 29 37 mph 1025.1mb 47f 35f
5:06 25 38 mph 1025.3mb 47f 35f
5:00 29 39 mph 1025.3mb 46f 35f
4:54 28 40 mph 1025.2mb 46f 35f
4:48 29 39 mph 1025.2mb 46f 35f
4:36 29 36 mph 1025.4mb 46f 36f
4:30 28 37 mph 1025.5mb 46f 36f
4:24 29 34 mph 1025.5mb 46f 36f
4:18 28 37 mph 1025.5mb 46f 36f
4:12 30 37 mph 1025.6mb 46f 36f
4:06 23 30 mph 1025.5mb 46f 36f
4:00 26 34 mph 1025.6mb 46f 36f
3:54 26 33 mph 1025.6mb 46f 37f
3:48 25 34 mph 1025.6mb 46f 37f
3:36 25 36 mph 1025.8mb 46f 37f
3:30 28 36 mph 1025.9mb 46f 37f
3:24 23 31 mph 1025.9mb 46f 37f
3:18 23 31 mph 1025.9mb 46f 37f
3:12 24 30 mph 1025.9mb 46f 37f
3:06 22 29 mph 1026mb 46f 37f
3:00 23 29 mph 1026.1mb 46f 37f
2:54 24 30 mph 1026.1mb 47f 37f
2:48 25 33 mph 1026.3mb 47f 37f
2:36 25 33 mph 1026.3mb 47f 37f
2:30 22 30 mph 1026.3mb 46f 37f
2:24 25 30 mph 1026.3mb 46f 37f
2:18 22 29 mph 1026.4mb 46f 37f
2:12 21 30 mph 1026.5mb 46f 37f
2:06 25 30 mph 1026.5mb 46f 37f
2:00 17 25 mph 1026.5mb 46f 37f
1:54 20 28 mph 1026.6mb 46f 37f
1:48 22 30 mph 1026.7mb 46f 37f
1:36 22 29 mph 1026.7mb 46f 37f
1:30 22 29 mph 1026.8mb 46f 36f
1:24 22 25 mph 1026.9mb 46f 36f
1:18 20 29 mph 1026.9mb 47f 36f
1:12 22 28 mph 1027.1mb 47f 36f
1:06 21 26 mph 1027.1mb 47f 36f
1:00 23 31 mph 1027.1mb 47f 36f
12:54 23 33 mph 1027.2mb 47f 36f
12:48 24 32 mph 1027.3mb 47f 36f
12:36 22 30 mph 1027.4mb 47f 36f
12:30 25 31 mph 1027.6mb 47f 35f
12:24 24 32 mph 1027.7mb 47f 35f
12:18 25 31 mph 1027.8mb 48f 35f
12:12 23 32 mph 1027.8mb 48f 35f
12:06 24 33 mph 1028mb 48f 35f
12:00 25 33 mph 1028.1mb 48f 35f
11:54 22 30 mph 1028.3mb 48f 35f
11:48 18 31 mph 1028.2mb 49f 35f
11:36 24 31 mph 1028.4mb 49f 35f
11:30 26 32 mph 1028.6mb 48f 34f
11:24 25 31 mph 1028.7mb 48f 34f
11:18 22 29 mph 1028.6mb 48f 35f
11:12 22 30 mph 1028.8mb 49f 35f
11:06 22 29 mph 1028.9mb 49f 34f
11:00 23 28 mph 1028.9mb 49f 34f
10:54 25 30 mph 1029mb 49f 34f
10:48 24 31 mph 1029mb 49f 34f
10:36 21 28 mph 1029mb 49f 34f
10:30 20 25 mph 1029mb 49f 33f
10:24 21 29 mph 1029mb 49f 33f
10:18 21 24 mph 1028.9mb 49f 33f
10:12 20 23 mph 1029mb 50f 33f
10:06 20 25 mph 1029mb 50f 33f
10:00 18 23 mph 1029mb 50f 33f
9:54 17 23 mph 1028.9mb 50f 33f
9:48 17 25 mph 1028.9mb 50f 33f
9:36 18 26 mph 1028.8mb 50f 32f
9:30 21 28 mph 1028.7mb 50f 32f
9:24 18 25 mph 1028.8mb 50f 32f
9:18 20 24 mph 1028.6mb 50f 32f
9:12 15 23 mph 1028.6mb 51f 32f
9:06 17 22 mph 1028.6mb 51f 32f
9:00 20 24 mph 1028.6mb 51f 32f
8:54 17 23 mph 1028.6mb 51f 32f
8:48 22 29 mph 1028.6mb 51f 32f
8:36 23 28 mph 1028.4mb 51f 32f
8:30 20 28 mph 1028.5mb 51f 32f
8:24 24 29 mph 1028.4mb 51f 32f
8:18 21 26 mph 1028.5mb 51f 32f
8:12 20 25 mph 1028.5mb 51f 32f
8:06 20 24 mph 1028.5mb 51f 31f
8:00 16 23 mph 1028.6mb 51f 31f
7:54 16 23 mph 1028.6mb 51f 31f
7:48 16 23 mph 1028.6mb 51f 31f
7:36 17 22 mph 1028.4mb 51f 31f
7:30 14 22 mph 1028.5mb 51f 31f
7:24 16 23 mph 1028.5mb 51f 32f
7:18 17 22 mph 1028.5mb 51f 32f
7:12 18 24 mph 1028.6mb 51f 32f
7:06 16 23 mph 1028.6mb 51f 32f
7:00 18 22 mph 1028.6mb 51f 32f
6:54 17 24 mph 1028.6mb 51f 32f
6:48 17 22 mph 1028.6mb 51f 32f
6:36 15 21 mph 1028.8mb 51f 32f
6:30 20 23 mph 1028.8mb 51f 32f
6:24 17 24 mph 1028.8mb 51f 32f
6:18 18 23 mph 1028.7mb 51f 32f
6:12 21 23 mph 1028.8mb 51f 32f
6:06 18 24 mph 1028.8mb 52f 32f
6:00 16 21 mph 1028.8mb 52f 32f
5:54 18 24 mph 1028.7mb 52f 32f
5:48 16 23 mph 1028.7mb 52f 32f
5:36 18 26 mph 1028.6mb 51f 32f
5:30 15 22 mph 1028.6mb 51f 32f
5:24 17 24 mph 1028.6mb 51f 32f
5:18 17 23 mph 1028.6mb 51f 32f
5:12 18 24 mph 1028.7mb 51f 32f
5:06 18 23 mph 1028.6mb 51f 32f
5:00 16 24 mph 1028.6mb 51f 32f
4:54 16 24 mph 1028.6mb 50f 33f
4:48 18 23 mph 1028.6mb 50f 33f
4:36 21 24 mph 1028.5mb 50f 33f
4:30 15 22 mph 1028.5mb 50f 33f
4:24 18 24 mph 1028.4mb 50f 33f
4:18 17 24 mph 1028.5mb 50f 33f
4:12 16 24 mph 1028.5mb 50f 33f
4:06 17 22 mph 1028.5mb 50f 33f
4:00 16 22 mph 1028.5mb 50f 33f
3:54 17 21 mph 1028.5mb 50f 33f
3:48 15 20 mph 1028.6mb 49f 33f
3:36 14 18 mph 1028.6mb 49f 33f
3:30 14 18 mph 1028.6mb 49f 33f
3:24 11 15 mph 1028.7mb 49f 33f
3:18 13 15 mph 1028.7mb 49f 33f
3:12 11 15 mph 1028.7mb 48f 33f
3:06 11 15 mph 1028.7mb 48f 33f
3:00 10 14 mph 1028.8mb 48f 33f
2:54 8 11 mph 1028.8mb 48f 33f
2:48 8 11 mph 1028.8mb 47f 32f
2:36 9 10 mph 1028.7mb 47f 33f
2:30 9
mph
1028.7mb 48f 32f
2:24 8 9 mph 1028.6mb 48f 32f
2:18 8 10 mph 1028.6mb 47f 32f
2:12 9 10 mph 1028.5mb 47f 32f
2:06 8 10 mph 1028.5mb 47f 32f
2:00 7 9 mph 1028.4mb 47f 32f
1:54 6 9 mph 1028.5mb 48f 32f
1:48 7 9 mph 1028.4mb 48f 32f
1:36 7 10 mph 1028.3mb 48f 33f
1:30 8 11 mph 1028.2mb 48f 33f
1:24 8 13 mph 1028.2mb 48f 33f
1:18 8 11 mph 1028.2mb 48f 33f
1:12 10 13 mph 1028.2mb 48f 33f
1:06 8 11 mph 1028.1mb 48f 34f
1:00 9 11 mph 1028mb 48f 34f
12:54 11 14 mph 1027.9mb 48f 34f
12:48 11 14 mph 1027.9mb 48f 34f
12:36 9 11 mph 1027.9mb 48f 33f
12:30 9 11 mph 1027.7mb 48f 33f
12:24 9 11 mph 1027.7mb 48f 33f
12:18 9 11 mph 1027.6mb 48f 33f
12:12 9 11 mph 1027.6mb 48f 33f
12:06 9 11 mph 1027.5mb 48f 33f
12:00 8 11 mph 1027.4mb 48f 33f
mar. 12/06 11:54 9 11 mph 1027.5mb 48f 33f
11:48 9 11 mph 1027.4mb 48f 34f
11:36 11 15 mph 1027.1mb 48f 34f
11:30 13 16 mph 1027.1mb 48f 34f
11:24 11 14 mph 1027.2mb 48f 34f
11:18 13 14 mph 1027.1mb 48f 34f
11:12 11 14 mph 1027.1mb 48f 34f
11:06 8 10 mph 1027.1mb 48f 34f
11:00 7 8 mph 1027mb 48f 34f
10:54 6 7 mph 1027mb 48f 33f
10:48 6 9 mph 1026.9mb 48f 33f
10:36 9 11 mph 1026.7mb 48f 34f
10:30 9 13 mph 1026.7mb 48f 33f
10:24 11 15 mph 1026.6mb 48f 34f
10:18 10 14 mph 1026.6mb 48f 34f
10:12 11 13 mph 1026.6mb 48f 34f
10:06 10 14 mph 1026.7mb 48f 34f
10:00 9 11 mph 1026.7mb 49f 34f
9:54 8 9 mph 1026.7mb 49f 35f
9:48 9 11 mph 1026.7mb 49f 35f
9:36 10 11 mph 1026.5mb 49f 35f
9:30 9 11 mph 1026.4mb 49f 35f
9:24 10
mph
1026.4mb 49f 35f
9:18 9
mph
1026.4mb 49f 36f
9:12 9 10 mph 1026.3mb 49f 36f
9:06 9 10 mph 1026.2mb 49f 36f
9:00 9 10 mph 1026.1mb 49f 36f
8:54 9 10 mph 1026.1mb 49f 36f
8:48 9 10 mph 1026mb 49f 36f
8:36 9 11 mph 1025.9mb 50f 37f
8:30 9 10 mph 1025.9mb 49f 36f
8:24 7 9 mph 1025.8mb 49f 35f
8:18 8 9 mph 1025.7mb 48f 36f
8:12 9
mph
1025.6mb 49f 36f
8:06 8 10 mph 1025.6mb 49f 36f
8:00 9 10 mph 1025.6mb 50f 35f
7:54 7 9 mph 1025.4mb 50f 35f
7:48 7 8 mph 1025.4mb 50f 35f
7:36 10 11 mph 1025.3mb 49f 36f
7:30 9 10 mph 1025.3mb 49f 36f
7:24 9 10 mph 1025.2mb 49f 37f
7:18 9 10 mph 1025.2mb 50f 36f
7:12 9 10 mph 1025.2mb 50f 37f
7:06 10
mph
1025.2mb 50f 37f
7:00 9 10 mph 1025.2mb 51f 37f
6:54 9 10 mph 1025.2mb 50f 38f
6:48 8
mph
1025.2mb 50f 38f
5:54 7 8 mph 1024.7mb 50f 39f
5:48 7 8 mph 1024.8mb 50f 39f
4:54 6 7 mph 1024.1mb 50f 39f
4:48 7 8 mph 1024.1mb 51f 39f
3:54 6 7 mph 1023.9mb 51f 41f
3:48 5 6 mph 1023.9mb 51f 42f
3:36 5 7 mph 1023.7mb 51f 43f
3:30 5 8 mph 1023.7mb 51f 42f
3:24 7 9 mph 1023.7mb 50f 42f
3:18 8 10 mph 1023.6mb 50f 42f
3:12 7 10 mph 1023.6mb 50f 42f
3:06 8 10 mph 1023.5mb 50f 42f
3:00 9 13 mph 1023.4mb 50f 42f
2:54 8 10 mph 1023.3mb 50f 42f
2:48 6 10 mph 1023.2mb 50f 42f
2:36 9 11 mph 1023mb 49f 42f
2:30 8 11 mph 1022.9mb 49f 42f
2:24 8 14 mph 1022.8mb 49f 42f
2:18 10 13 mph 1022.7mb 49f 42f
2:12 8 11 mph 1022.7mb 47f 42f
2:06 7 10 mph 1022.6mb 47f 42f
2:00 9 10 mph 1022.5mb 47f 41f
1:54 8 11 mph 1022.5mb 48f 42f
1:48 8 10 mph 1022.5mb 48f 41f
1:36 9 11 mph 1022.3mb 48f 41f
1:30 6 11 mph 1022.3mb 48f 41f
1:24 8 10 mph 1022.2mb 48f 41f
1:18 9 11 mph 1022.1mb 48f 41f
1:12 8 11 mph 1022mb 48f 40f
1:06 7 11 mph 1022mb 48f 41f
1:00 7 11 mph 1022mb 48f 41f
12:54 10 13 mph 1022mb 48f 40f
12:48 8 11 mph 1022mb 48f 39f
12:36 8 11 mph 1022mb 49f 39f
12:30 10 13 mph 1021.9mb 49f 40f
12:24 9 13 mph 1021.8mb 49f 40f
12:18 10 13 mph 1021.7mb 49f 40f
12:12 9 13 mph 1021.7mb 49f 40f
12:06 10 13 mph 1021.7mb 49f 40f
12:00 8 11 mph 1021.8mb 50f 38f
11:54 9 11 mph 1021.7mb 50f 39f
11:48 10 13 mph 1021.7mb 50f 39f
11:36 11 15 mph 1021.7mb 50f 39f
11:30 11 15 mph 1021.7mb 50f 38f
11:24 10 13 mph 1021.7mb 50f 38f
11:18 11 15 mph 1021.8mb 50f 39f
11:12 9 13 mph 1021.7mb 50f 39f
11:06 9 14 mph 1021.6mb 50f 39f
11:00 9 14 mph 1021.6mb 50f 38f
10:54 11 15 mph 1021.6mb 50f 38f
10:48 11 15 mph 1021.6mb 50f 38f
10:30 11 15 mph 1021.4mb 51f 38f
10:24 11 14 mph 1021.4mb 51f 38f
10:18 13 16 mph 1021.3mb 51f 38f
10:12 9 13 mph 1021.2mb 51f 38f
10:06 10 14 mph 1021mb 51f 38f
10:00 10 15 mph 1020.9mb 51f 38f
9:54 11 14 mph 1020.8mb 51f 37f
9:48 8 14 mph 1020.8mb 51f 37f
9:30 13 16 mph 1020.4mb 51f 36f
9:24 14 16 mph 1020.5mb 51f 36f
9:18 9 14 mph 1020.4mb 51f 37f
9:12 9 15 mph 1020.2mb 51f 37f
9:06 11 15 mph 1020mb 51f 37f
9:00 11 17 mph 1019.9mb 51f 37f
8:54 9 16 mph 1020mb 52f 37f
8:48 11 20 mph 1019.9mb 52f 36f
8:36 10 16 mph 1019.8mb 52f 36f
8:30 11 15 mph 1019.6mb 52f 36f
8:24 11 15 mph 1019.5mb 52f 35f
8:18 10 14 mph 1019.5mb 52f 35f
8:12 13 16 mph 1019.3mb 52f 35f
8:06 13 16 mph 1019.3mb 51f 35f
8:00 9 13 mph 1019.2mb 52f 35f
7:54 9 11 mph 1019.1mb 52f 35f
7:48 8 10 mph 1019mb 52f 35f
7:36 11 15 mph 1018.9mb 52f 35f
7:30 11 14 mph 1018.9mb 52f 35f
7:24 10 13 mph 1018.8mb 52f 35f
7:18 6 9 mph 1018.8mb 52f 35f
7:12 7 9 mph 1018.7mb 52f 35f
7:06 8 11 mph 1018.6mb 52f 35f
7:00 8 11 mph 1018.5mb 52f 35f
6:54 7 10 mph 1018.4mb 52f 35f
6:48 7 11 mph 1018.3mb 52f 35f
6:36 8 11 mph 1018.1mb 52f 35f
6:30 9 10 mph 1018.1mb 52f 35f
6:24 9 14 mph 1018mb 52f 35f
6:18 9 14 mph 1017.9mb 52f 35f
6:12 9 13 mph 1017.9mb 52f 35f
6:06 10 13 mph 1017.8mb 52f 35f
6:00 9 11 mph 1017.7mb 52f 35f
5:54 9 11 mph 1017.8mb 52f 35f
5:48 7 9 mph 1017.6mb 52f 35f
5:36 8 10 mph 1017.5mb 52f 35f
5:30 8 10 mph 1017.5mb 52f 35f
5:24 7 10 mph 1017.5mb 52f 35f
5:18 6 8 mph 1017.5mb 52f 35f
5:12 6 9 mph 1017.5mb 52f 35f
5:06 6 8 mph 1017.4mb 52f 34f
5:00 6 7 mph 1017.4mb 52f 34f
4:54 6 8 mph 1017.4mb 52f 34f
4:48 6 10 mph 1017.4mb 52f 34f
4:36 8 10 mph 1017.3mb 52f 34f
4:30 8 10 mph 1017.3mb 51f 34f
4:24 7 9 mph 1017.3mb 51f 34f
4:18 8 10 mph 1017.2mb 51f 34f
4:12 7 10 mph 1017.1mb 51f 34f
4:06 8 10 mph 1017mb 51f 33f
4:00 8 10 mph 1017mb 51f 33f
3:54 8 10 mph 1017mb 51f 33f
3:48 8 9 mph 1016.9mb 51f 33f
3:36 9 10 mph 1016.8mb 50f 34f
3:30 8 11 mph 1016.8mb 50f 35f
3:24 8 13 mph 1016.8mb 50f 35f
3:18 9 11 mph 1016.8mb 49f 35f
3:12 10 11 mph 1016.8mb 49f 35f
3:06 9 13 mph 1016.7mb 49f 34f
3:00 8 13 mph 1016.7mb 49f 34f
2:54 10 13 mph 1016.6mb 48f 35f
2:48 10 13 mph 1016.6mb 48f 35f
2:36 9 14 mph 1016.5mb 49f 35f
2:30 9 14 mph 1016.5mb 48f 35f
2:24 8 11 mph 1016.4mb 48f 35f
2:18 8 14 mph 1016.4mb 48f 35f
2:12 10 13 mph 1016.3mb 48f 36f
2:06 10 13 mph 1016.2mb 47f 36f
2:00 9 13 mph 1016.2mb 47f 35f
1:54 10 14 mph 1016.2mb 47f 35f
1:48 11 13 mph 1016.1mb 48f 35f
1:36 8 11 mph 1016.1mb 48f 35f
1:30 7 9 mph 1016.1mb 48f 34f
1:24 8 9 mph 1016.1mb 48f 34f
1:18 8 10 mph 1016.1mb 48f 34f
1:12 7 9 mph 1016.1mb 48f 34f
1:06 7 8 mph 1016.1mb 48f 34f
1:00 8 10 mph 1016mb 48f 34f
12:54 10 11 mph 1016mb 48f 33f
12:48 10 11 mph 1016.1mb 48f 33f
12:36 9 10 mph 1016.1mb 49f 33f
12:30 9 10 mph 1016mb 49f 33f
12:24 8 9 mph 1016.1mb 49f 33f
12:18 7 9 mph 1016.1mb 49f 33f
12:12 8 9 mph 1016.2mb 49f 33f
12:06 8 9 mph 1016.2mb 49f 33f
12:00 8 9 mph 1016.2mb 49f 33f
lun. 12/05 11:54 8 9 mph 1016.1mb 49f 33f
11:48 8 9 mph 1016.2mb 49f 33f
11:36 8 10 mph 1016.2mb 49f 34f
11:30 8 9 mph 1016.2mb 49f 34f
11:24 8 10 mph 1016.2mb 49f 34f
11:18 8 10 mph 1016.2mb 49f 35f
11:12 9 10 mph 1016.2mb 49f 35f
11:06 8 9 mph 1016.2mb 49f 35f
11:00 8 10 mph 1016.2mb 49f 35f
10:54 7 9 mph 1016.2mb 49f 35f
10:48 8 9 mph 1016.2mb 49f 35f
10:36 6 8 mph 1016.2mb 49f 35f
10:30 6 8 mph 1016.2mb 49f 35f
10:24 7 8 mph 1016.1mb 49f 35f
10:18 7 8 mph 1016.1mb 49f 35f
10:12 8 9 mph 1016mb 49f 35f
10:06 8 9 mph 1016mb 49f 35f
10:00 8 9 mph 1015.9mb 49f 34f
9:54 8 10 mph 1015.9mb 49f 34f
9:48 8 10 mph 1015.9mb 49f 34f
9:36 8 10 mph 1015.8mb 49f 34f
9:30 9 10 mph 1015.8mb 49f 35f
9:24 8 10 mph 1015.8mb 49f 35f
9:18 8 9 mph 1015.8mb 49f 35f
9:12 8 9 mph 1015.7mb 49f 35f
9:06 8 9 mph 1015.7mb 49f 35f
9:00 8 9 mph 1015.7mb 49f 35f
8:36 7 8 mph 1015.5mb 49f 35f
8:30 6 8 mph 1015.5mb 49f 35f
8:24 6 9 mph 1015.5mb 48f 35f
8:18 7 9 mph 1015.4mb 49f 36f
8:12 5 7 mph 1015.5mb 49f 36f
8:06 6 8 mph 1015.5mb 49f 36f
8:00 8 9 mph 1015.5mb 49f 36f
7:54 7 9 mph 1015.6mb 50f 36f
7:48 7 9 mph 1015.6mb 50f 36f
7:36 6 8 mph 1015.7mb 50f 36f
7:30 6 10 mph 1015.8mb 51f 36f
7:24 7 9 mph 1015.9mb 51f 36f
7:18 8 9 mph 1015.9mb 49f 36f
7:12 9 10 mph 1015.9mb 49f 36f
7:06 7 11 mph 1015.9mb 50f 36f
7:00 7 10 mph 1015.9mb 50f 36f
6:54 9 10 mph 1016mb 50f 36f
6:48 7 8 mph 1016mb 50f 36f
6:36 3 5 mph 1016mb 51f 36f
6:30 3
mph
1015.9mb 50f 35f
6:24 2 3 mph 1015.9mb 51f 35f
6:18 2 3 mph 1015.9mb 51f 35f
6:12 1 3 mph 1015.8mb 51f 35f
6:06 3 6 mph 1015.8mb 51f 35f
6:00 3 8 mph 1015.7mb 51f 35f
5:54 5 7 mph 1015.7mb 51f 36f
5:48 5 7 mph 1015.7mb 51f 36f
5:36 6 9 mph 1015.7mb 51f 35f
5:30 6 11 mph 1015.7mb 51f 35f
5:24 10 13 mph 1015.6mb 51f 35f
5:18 8 9 mph 1015.7mb 51f 35f
5:12 7 9 mph 1015.7mb 51f 35f
5:06 6 8 mph 1015.6mb 51f 35f
5:00 6 11 mph 1015.6mb 51f 35f
4:54 8 11 mph 1015.6mb 52f 35f
4:48 7 13 mph 1015.6mb 52f 35f
4:36 9 13 mph 1015.6mb 52f 35f
4:30 9 13 mph 1015.6mb 52f 35f
4:24 9 11 mph 1015.7mb 52f 35f
4:18 9 11 mph 1015.8mb 52f 35f
4:12 8 11 mph 1015.8mb 52f 35f
4:06 9 11 mph 1015.8mb 52f 35f
4:00 8 10 mph 1015.9mb 52f 36f
3:54 8 10 mph 1016mb 52f 36f
3:48 7 8 mph 1016mb 52f 36f
3:36 6 13 mph 1016.2mb 51f 36f
3:30 7 14 mph 1016.2mb 51f 36f
3:24 8 15 mph 1016.3mb 51f 36f
3:18 13 16 mph 1016.4mb 51f 37f
3:12 11 16 mph 1016.3mb 51f 37f
3:06 7 14 mph 1016.3mb 51f 37f
3:00 14 16 mph 1016.3mb 51f 38f
2:54 14 18 mph 1016.3mb 51f 38f
2:48 17 20 mph 1016.4mb 51f 37f
2:36 7 11 mph 1016.4mb 51f 39f
2:30 7 9 mph 1016.3mb 51f 39f
2:24 6 10 mph 1016.3mb 51f 39f
2:18 8 13 mph 1016.2mb 51f 39f
2:12 8 10 mph 1016.2mb 51f 39f
2:06 7 9 mph 1016.3mb 52f 39f
2:00 7 10 mph 1016.3mb 52f 39f
1:54 7 9 mph 1016.4mb 52f 39f
1:48 6 10 mph 1016.4mb 51f 40f
1:36 7 9 mph 1016.3mb 51f 40f
1:30 6 8 mph 1016.5mb 51f 40f
1:24 7 8 mph 1016.5mb 51f 40f
1:18 5 7 mph 1016.6mb 51f 40f
1:12 6 7 mph 1016.7mb 51f 40f
1:06 3 6 mph 1016.7mb 51f 40f
1:00 6 7 mph 1016.7mb 50f 40f
12:54 5 8 mph 1016.8mb 49f 40f
12:48 6 7 mph 1016.8mb 49f 40f
12:36 6 8 mph 1016.9mb 50f 40f
12:30 8 10 mph 1016.9mb 50f 40f
12:24 9 11 mph 1016.9mb 50f 39f
12:18 5 10 mph 1017mb 51f 40f
12:12 8 10 mph 1017.1mb 51f 40f
12:06 7 9 mph 1017.2mb 51f 39f
12:00 8 10 mph 1017.3mb 51f 39f
11:54 7 9 mph 1017.4mb 51f 39f
11:48 7 9 mph 1017.5mb 51f 38f
11:36 7 9 mph 1017.5mb 51f 38f
11:30 8 10 mph 1017.6mb 51f 38f
11:24 9 11 mph 1017.6mb 51f 37f
11:18 7 10 mph 1017.6mb 52f 37f
11:12 9 11 mph 1017.6mb 53f 37f
11:06 8 11 mph 1017.7mb 52f 37f
11:00 8 10 mph 1017.8mb 51f 37f
10:54 7 13 mph 1017.8mb 51f 37f
10:48 9 11 mph 1017.9mb 51f 37f
10:36 10 13 mph 1017.9mb 53f 37f
10:30 11 13 mph 1017.9mb 53f 37f
10:24 6 11 mph 1018mb 53f 37f
10:18 8 10 mph 1017.9mb 53f 37f
10:12 9 11 mph 1017.8mb 53f 37f